Portada
METAR-TAF:

METAR-TAF

Aeroports :

Ube, Japó

latitud: 33-57N, longitud: 131-15E, altitud: 5 m

Observació

L'informe es va fer fa 8 hores i 13 minuts, a les 12:00 UTC
Vent 9 kt del Nord/Nord-Est
Temperatura 22°C
Humitat 65%
Pressió 1007 hPa
Visibilitat 10 km o més
Escasses núvols a una alçada de 3000 ft
Cel ennuvolat

METAR: RJDC 291200Z 02009KT 9999 FEW030 BKN/// 22/15 Q1007

Hora: 05:13 (20:13 UTC)


TAF: manca

Observacions i pronòstics meteorològics de més de 4000 aeroports (METAR i TAF).

Les estacions disponibles són els punts grocs i vermells al mapa.

Posi el ratolí al punt desitjat per veure el nom de l'estació.

Feu clic per veure les observacions i els pronòstics meteorològics.

Per canviar el mapa: feu clic els botons verds amb una creu de color negre per apropar; al botó verd amb un guió per allunyar la imatge; o en les fletxes verdes per a mapes adjacents.


METAR-TAF: